sensor_id;sensor_type;location;lat;lon;timestamp;pressure;altitude;pressure_sealevel;temperature;humidity
17607;BME280;69222;52.242;20.980;2024-01-15T00:02:27;98218.44;;;0.64;96.34
17607;BME280;69222;52.242;20.980;2024-01-15T00:04:56;98215.88;;;0.65;95.86
17607;BME280;69222;52.242;20.980;2024-01-15T00:07:24;98218.44;;;0.67;95.85
17607;BME280;69222;52.242;20.980;2024-01-15T00:09:52;98210.81;;;0.68;95.69
17607;BME280;69222;52.242;20.980;2024-01-15T00:12:20;98208.25;;;0.73;95.05
17607;BME280;69222;52.242;20.980;2024-01-15T00:14:48;98207.44;;;0.74;95.10
17607;BME280;69222;52.242;20.980;2024-01-15T00:17:16;98194.75;;;0.74;95.16
17607;BME280;69222;52.242;20.980;2024-01-15T00:19:44;98198.13;;;0.76;94.35
17607;BME280;69222;52.242;20.980;2024-01-15T00:22:13;98187.16;;;0.74;95.52
17607;BME280;69222;52.242;20.980;2024-01-15T00:24:41;98184.63;;;0.74;95.42
17607;BME280;69222;52.242;20.980;2024-01-15T00:27:09;98177.00;;;0.77;96.23
17607;BME280;69222;52.242;20.980;2024-01-15T00:29:37;98173.63;;;0.75;95.57
17607;BME280;69222;52.242;20.980;2024-01-15T00:32:05;98166.88;;;0.71;95.81
17607;BME280;69222;52.242;20.980;2024-01-15T00:34:33;98165.19;;;0.71;95.62
17607;BME280;69222;52.242;20.980;2024-01-15T00:37:01;98157.56;;;0.70;96.16
17607;BME280;69222;52.242;20.980;2024-01-15T00:39:31;98150.81;;;0.72;95.39
17607;BME280;69222;52.242;20.980;2024-01-15T00:41:59;98152.50;;;0.75;95.79
17607;BME280;69222;52.242;20.980;2024-01-15T00:44:27;98150.81;;;0.73;95.17
17607;BME280;69222;52.242;20.980;2024-01-15T00:46:55;98157.59;;;0.75;95.24
17607;BME280;69222;52.242;20.980;2024-01-15T00:49:23;98145.72;;;0.73;95.33
17607;BME280;69222;52.242;20.980;2024-01-15T00:51:51;98145.72;;;0.73;95.03
17607;BME280;69222;52.242;20.980;2024-01-15T00:54:19;98140.69;;;0.72;94.99
17607;BME280;69222;52.242;20.980;2024-01-15T00:56:48;98135.63;;;0.70;94.97
17607;BME280;69222;52.242;20.980;2024-01-15T00:59:16;98128.03;;;0.70;95.62
17607;BME280;69222;52.242;20.980;2024-01-15T01:01:44;98132.25;;;0.68;96.47
17607;BME280;69222;52.242;20.980;2024-01-15T01:04:13;98128.03;;;0.66;96.59
17607;BME280;69222;52.242;20.980;2024-01-15T01:06:41;98121.28;;;0.63;97.92
17607;BME280;69222;52.242;20.980;2024-01-15T01:09:09;98125.53;;;0.60;98.06
17607;BME280;69222;52.242;20.980;2024-01-15T01:11:36;98121.28;;;0.57;97.67
17607;BME280;69222;52.242;20.980;2024-01-15T01:14:06;98116.22;;;0.54;98.68
17607;BME280;69222;52.242;20.980;2024-01-15T01:16:34;98118.78;;;0.53;99.63
17607;BME280;69222;52.242;20.980;2024-01-15T01:19:06;98105.25;;;0.54;99.87
17607;BME280;69222;52.242;20.980;2024-01-15T01:21:34;98112.03;;;0.52;99.07
17607;BME280;69222;52.242;20.980;2024-01-15T01:24:02;98112.03;;;0.48;99.94
17607;BME280;69222;52.242;20.980;2024-01-15T01:26:30;98116.25;;;0.48;100.00
17607;BME280;69222;52.242;20.980;2024-01-15T01:28:58;98103.59;;;0.46;100.00
17607;BME280;69222;52.242;20.980;2024-01-15T01:31:28;98113.72;;;0.46;100.00
17607;BME280;69222;52.242;20.980;2024-01-15T01:33:56;98104.44;;;0.44;100.00
17607;BME280;69222;52.242;20.980;2024-01-15T01:36:24;98099.41;;;0.41;100.00
17607;BME280;69222;52.242;20.980;2024-01-15T01:38:52;98083.31;;;0.40;100.00
17607;BME280;69222;52.242;20.980;2024-01-15T01:41:20;98094.31;;;0.39;100.00
17607;BME280;69222;52.242;20.980;2024-01-15T01:43:48;98082.47;;;0.40;99.77
17607;BME280;69222;52.242;20.980;2024-01-15T01:46:15;98075.72;;;0.40;99.18
17607;BME280;69222;52.242;20.980;2024-01-15T01:48:45;98074.91;;;0.41;99.72
17607;BME280;69222;52.242;20.980;2024-01-15T01:51:13;98074.91;;;0.38;99.33
17607;BME280;69222;52.242;20.980;2024-01-15T01:53:43;98073.19;;;0.43;100.00
17607;BME280;69222;52.242;20.980;2024-01-15T01:56:12;98064.75;;;0.43;99.69
17607;BME280;69222;52.242;20.980;2024-01-15T01:58:41;98059.69;;;0.43;100.00
17607;BME280;69222;52.242;20.980;2024-01-15T02:01:09;98065.59;;;0.43;100.00
17607;BME280;69222;52.242;20.980;2024-01-15T02:03:38;98063.06;;;0.46;99.66
17607;BME280;69222;52.242;20.980;2024-01-15T02:06:09;98062.19;;;0.47;98.66
17607;BME280;69222;52.242;20.980;2024-01-15T02:08:37;98066.44;;;0.48;98.89
17607;BME280;69222;52.242;20.980;2024-01-15T02:11:05;98058.84;;;0.48;97.72
17607;BME280;69222;52.242;20.980;2024-01-15T02:13:33;98063.88;;;0.50;97.49
17607;BME280;69222;52.242;20.980;2024-01-15T02:16:01;98063.91;;;0.52;96.77
17607;BME280;69222;52.242;20.980;2024-01-15T02:18:29;98041.06;;;0.53;97.56
17607;BME280;69222;52.242;20.980;2024-01-15T02:21:06;98038.53;;;0.55;97.10
17607;BME280;69222;52.242;20.980;2024-01-15T02:23:36;98036.84;;;0.57;96.52
17607;BME280;69222;52.242;20.980;2024-01-15T02:26:04;98036.00;;;0.59;97.06
17607;BME280;69222;52.242;20.980;2024-01-15T02:28:33;98021.63;;;0.57;96.08
17607;BME280;69222;52.242;20.980;2024-01-15T02:31:01;98019.94;;;0.57;96.08
17607;BME280;69222;52.242;20.980;2024-01-15T02:33:29;98020.78;;;0.59;95.83
17607;BME280;69222;52.242;20.980;2024-01-15T02:35:58;98013.19;;;0.59;95.08
17607;BME280;69222;52.242;20.980;2024-01-15T02:38:26;98014.88;;;0.60;95.74
17607;BME280;69222;52.242;20.980;2024-01-15T02:40:55;98012.31;;;0.60;95.51
17607;BME280;69222;52.242;20.980;2024-01-15T02:43:23;98009.78;;;0.59;95.72
17607;BME280;69222;52.242;20.980;2024-01-15T02:45:51;98010.63;;;0.61;95.01
17607;BME280;69222;52.242;20.980;2024-01-15T02:48:19;97999.66;;;0.63;95.48
17607;BME280;69222;52.242;20.980;2024-01-15T02:50:47;97992.88;;;0.64;95.05
17607;BME280;69222;52.242;20.980;2024-01-15T02:53:15;97992.03;;;0.65;94.99
17607;BME280;69222;52.242;20.980;2024-01-15T02:55:42;97988.66;;;0.64;95.00
17607;BME280;69222;52.242;20.980;2024-01-15T02:58:12;97993.75;;;0.63;95.08
17607;BME280;69222;52.242;20.980;2024-01-15T03:00:39;97978.53;;;0.58;94.64
17607;BME280;69222;52.242;20.980;2024-01-15T03:03:08;97966.75;;;0.56;95.29
17607;BME280;69222;52.242;20.980;2024-01-15T03:05:36;97966.75;;;0.53;95.39
17607;BME280;69222;52.242;20.980;2024-01-15T03:08:04;97963.38;;;0.51;95.47
17607;BME280;69222;52.242;20.980;2024-01-15T03:10:32;97949.88;;;0.52;95.69
17607;BME280;69222;52.242;20.980;2024-01-15T03:13:00;97953.25;;;0.51;96.04
17607;BME280;69222;52.242;20.980;2024-01-15T03:15:29;97949.88;;;0.48;96.56
17607;BME280;69222;52.242;20.980;2024-01-15T03:17:57;97947.34;;;0.47;97.11
17607;BME280;69222;52.242;20.980;2024-01-15T03:20:25;97944.84;;;0.45;97.66
17607;BME280;69222;52.242;20.980;2024-01-15T03:22:53;97944.81;;;0.44;97.58
17607;BME280;69222;52.242;20.980;2024-01-15T03:25:21;97946.53;;;0.40;99.04
17607;BME280;69222;52.242;20.980;2024-01-15T03:27:49;97932.19;;;0.36;99.29
17607;BME280;69222;52.242;20.980;2024-01-15T03:30:17;97934.72;;;0.36;99.98
17607;BME280;69222;52.242;20.980;2024-01-15T03:32:46;97934.78;;;0.33;100.00
17607;BME280;69222;52.242;20.980;2024-01-15T03:35:16;97925.47;;;0.29;100.00
17607;BME280;69222;52.242;20.980;2024-01-15T03:37:44;97928.00;;;0.29;100.00
17607;BME280;69222;52.242;20.980;2024-01-15T03:40:12;97930.56;;;0.28;100.00
17607;BME280;69222;52.242;20.980;2024-01-15T03:42:42;97928.88;;;0.27;100.00
17607;BME280;69222;52.242;20.980;2024-01-15T03:45:10;97924.66;;;0.26;100.00
17607;BME280;69222;52.242;20.980;2024-01-15T03:47:38;97919.63;;;0.22;100.00
17607;BME280;69222;52.242;20.980;2024-01-15T03:50:09;97911.16;;;0.22;100.00
17607;BME280;69222;52.242;20.980;2024-01-15T03:52:37;97913.69;;;0.22;100.00
17607;BME280;69222;52.242;20.980;2024-01-15T03:55:05;97901.03;;;0.22;99.89
17607;BME280;69222;52.242;20.980;2024-01-15T03:57:33;97886.69;;;0.24;99.90
17607;BME280;69222;52.242;20.980;2024-01-15T04:00:01;97900.16;;;0.28;99.34
17607;BME280;69222;52.242;20.980;2024-01-15T04:02:30;97891.72;;;0.30;99.22
17607;BME280;69222;52.242;20.980;2024-01-15T04:04:57;97895.94;;;0.28;98.60
17607;BME280;69222;52.242;20.980;2024-01-15T04:07:27;97893.44;;;0.27;99.02
17607;BME280;69222;52.242;20.980;2024-01-15T04:09:55;97889.19;;;0.30;98.62
17607;BME280;69222;52.242;20.980;2024-01-15T04:12:23;97880.75;;;0.28;98.61
17607;BME280;69222;52.242;20.980;2024-01-15T04:14:51;97875.69;;;0.28;98.39
17607;BME280;69222;52.242;20.980;2024-01-15T04:17:19;97876.53;;;0.29;98.17
17607;BME280;69222;52.242;20.980;2024-01-15T04:19:48;97868.94;;;0.30;97.97
17607;BME280;69222;52.242;20.980;2024-01-15T04:22:16;97856.25;;;0.30;97.67
17607;BME280;69222;52.242;20.980;2024-01-15T04:24:45;97852.84;;;0.34;97.14
17607;BME280;69222;52.242;20.980;2024-01-15T04:27:14;97842.72;;;0.34;96.93
17607;BME280;69222;52.242;20.980;2024-01-15T04:29:41;97841.03;;;0.35;96.85
17607;BME280;69222;52.242;20.980;2024-01-15T04:32:11;97832.56;;;0.36;95.97
17607;BME280;69222;52.242;20.980;2024-01-15T04:34:39;97833.41;;;0.39;95.17
17607;BME280;69222;52.242;20.980;2024-01-15T04:37:07;97827.47;;;0.42;95.30
17607;BME280;69222;52.242;20.980;2024-01-15T04:39:35;97819.03;;;0.43;94.44
17607;BME280;69222;52.242;20.980;2024-01-15T04:42:04;97818.16;;;0.44;94.65
17607;BME280;69222;52.242;20.980;2024-01-15T04:44:32;97819.03;;;0.43;94.37
17607;BME280;69222;52.242;20.980;2024-01-15T04:47:00;97821.56;;;0.44;94.40
17607;BME280;69222;52.242;20.980;2024-01-15T04:49:28;97819.84;;;0.46;93.08
17607;BME280;69222;52.242;20.980;2024-01-15T04:51:56;97824.91;;;0.48;92.50
17607;BME280;69222;52.242;20.980;2024-01-15T04:54:24;97833.34;;;0.48;92.12
17607;BME280;69222;52.242;20.980;2024-01-15T04:56:52;97819.00;;;0.49;92.19
17607;BME280;69222;52.242;20.980;2024-01-15T04:59:21;97812.19;;;0.51;91.76
17607;BME280;69222;52.242;20.980;2024-01-15T05:01:49;97824.00;;;0.54;92.45
17607;BME280;69222;52.242;20.980;2024-01-15T05:04:17;97814.72;;;0.56;92.09
17607;BME280;69222;52.242;20.980;2024-01-15T05:06:45;97827.38;;;0.56;91.62
17607;BME280;69222;52.242;20.980;2024-01-15T05:09:13;97808.78;;;0.57;91.29
17607;BME280;69222;52.242;20.980;2024-01-15T05:11:41;97799.53;;;0.56;91.09
17607;BME280;69222;52.242;20.980;2024-01-15T05:14:09;97810.47;;;0.58;90.77
17607;BME280;69222;52.242;20.980;2024-01-15T05:16:39;97800.34;;;0.56;90.50
17607;BME280;69222;52.242;20.980;2024-01-15T05:19:07;97792.72;;;0.58;91.08
17607;BME280;69222;52.242;20.980;2024-01-15T05:21:35;97813.84;;;0.58;90.54
17607;BME280;69222;52.242;20.980;2024-01-15T05:24:03;97796.94;;;0.59;90.64
17607;BME280;69222;52.242;20.980;2024-01-15T05:26:32;97790.19;;;0.59;90.94
17607;BME280;69222;52.242;20.980;2024-01-15T05:28:59;97793.59;;;0.57;91.01
17607;BME280;69222;52.242;20.980;2024-01-15T05:31:27;97786.00;;;0.57;90.78
17607;BME280;69222;52.242;20.980;2024-01-15T05:33:57;97795.28;;;0.56;90.28
17607;BME280;69222;52.242;20.980;2024-01-15T05:36:25;97792.75;;;0.56;90.51
17607;BME280;69222;52.242;20.980;2024-01-15T05:38:53;97793.59;;;0.57;90.74
17607;BME280;69222;52.242;20.980;2024-01-15T05:41:20;97784.31;;;0.56;90.78
17607;BME280;69222;52.242;20.980;2024-01-15T05:43:48;97799.53;;;0.56;91.04
17607;BME280;69222;52.242;20.980;2024-01-15T05:46:16;97799.47;;;0.59;90.20
17607;BME280;69222;52.242;20.980;2024-01-15T05:48:44;97802.88;;;0.58;90.27
17607;BME280;69222;52.242;20.980;2024-01-15T05:51:13;97801.19;;;0.57;90.39
17607;BME280;69222;52.242;20.980;2024-01-15T05:53:41;97796.13;;;0.57;91.22
17607;BME280;69222;52.242;20.980;2024-01-15T05:56:10;97782.63;;;0.56;90.72
17607;BME280;69222;52.242;20.980;2024-01-15T05:58:38;97784.31;;;0.56;91.23
17607;BME280;69222;52.242;20.980;2024-01-15T06:01:06;97772.53;;;0.52;92.30
17607;BME280;69222;52.242;20.980;2024-01-15T06:03:34;97774.22;;;0.50;92.41
17607;BME280;69222;52.242;20.980;2024-01-15T06:06:03;97784.38;;;0.48;92.49
17607;BME280;69222;52.242;20.980;2024-01-15T06:08:32;97769.16;;;0.46;92.11
17607;BME280;69222;52.242;20.980;2024-01-15T06:11:00;97776.78;;;0.48;92.32
17607;BME280;69222;52.242;20.980;2024-01-15T06:13:28;97772.56;;;0.48;91.78
17607;BME280;69222;52.242;20.980;2024-01-15T06:15:56;97760.72;;;0.47;91.79
17607;BME280;69222;52.242;20.980;2024-01-15T06:18:24;97770.84;;;0.47;90.90
17607;BME280;69222;52.242;20.980;2024-01-15T06:20:53;97751.44;;;0.48;91.64
17607;BME280;69222;52.242;20.980;2024-01-15T06:23:21;97755.63;;;0.51;91.29
17607;BME280;69222;52.242;20.980;2024-01-15T06:25:50;97764.09;;;0.50;90.02
17607;BME280;69222;52.242;20.980;2024-01-15T06:28:18;97739.59;;;0.52;90.60
17607;BME280;69222;52.242;20.980;2024-01-15T06:30:46;97762.41;;;0.48;91.52
17607;BME280;69222;52.242;20.980;2024-01-15T06:33:14;97754.00;;;0.43;92.29
17607;BME280;69222;52.242;20.980;2024-01-15T06:35:42;97749.81;;;0.41;92.28
17607;BME280;69222;52.242;20.980;2024-01-15T06:38:10;97751.50;;;0.39;92.54
17607;BME280;69222;52.242;20.980;2024-01-15T06:40:38;97752.38;;;0.38;91.93
17607;BME280;69222;52.242;20.980;2024-01-15T06:43:13;97743.94;;;0.37;91.91
17607;BME280;69222;52.242;20.980;2024-01-15T06:45:42;97743.03;;;0.40;91.97
17607;BME280;69222;52.242;20.980;2024-01-15T06:48:10;97747.25;;;0.42;91.79
17607;BME280;69222;52.242;20.980;2024-01-15T06:50:40;97743.84;;;0.46;92.14
17607;BME280;69222;52.242;20.980;2024-01-15T06:53:08;97737.91;;;0.49;91.81
17607;BME280;69222;52.242;20.980;2024-01-15T06:55:37;97742.13;;;0.50;90.68
17607;BME280;69222;52.242;20.980;2024-01-15T06:58:04;97749.69;;;0.55;90.30
17607;BME280;69222;52.242;20.980;2024-01-15T07:00:34;97749.66;;;0.59;90.24
17607;BME280;69222;52.242;20.980;2024-01-15T07:03:02;97756.41;;;0.57;90.59
17607;BME280;69222;52.242;20.980;2024-01-15T07:05:30;97751.38;;;0.56;91.11
17607;BME280;69222;52.242;20.980;2024-01-15T07:07:58;97749.72;;;0.52;89.79
17607;BME280;69222;52.242;20.980;2024-01-15T07:10:26;97752.28;;;0.48;91.47
17607;BME280;69222;52.242;20.980;2024-01-15T07:12:54;97756.50;;;0.46;90.68
17607;BME280;69222;52.242;20.980;2024-01-15T07:15:22;97753.16;;;0.44;90.72
17607;BME280;69222;52.242;20.980;2024-01-15T07:17:52;97746.41;;;0.43;91.33
17607;BME280;69222;52.242;20.980;2024-01-15T07:20:20;97754.81;;;0.44;92.10
17607;BME280;69222;52.242;20.980;2024-01-15T07:22:48;97749.81;;;0.41;92.26
17607;BME280;69222;52.242;20.980;2024-01-15T07:25:16;97749.81;;;0.36;94.07
17607;BME280;69222;52.242;20.980;2024-01-15T07:27:43;97754.97;;;0.30;95.08
17607;BME280;69222;52.242;20.980;2024-01-15T07:30:13;97760.09;;;0.22;95.56
17607;BME280;69222;52.242;20.980;2024-01-15T07:32:42;97763.44;;;0.21;96.01
17607;BME280;69222;52.242;20.980;2024-01-15T07:35:11;97760.09;;;0.18;97.21
17607;BME280;69222;52.242;20.980;2024-01-15T07:37:39;97754.22;;;0.16;97.68
17607;BME280;69222;52.242;20.980;2024-01-15T07:40:08;97755.06;;;0.16;98.12
17607;BME280;69222;52.242;20.980;2024-01-15T07:42:37;97753.34;;;0.18;98.17
17607;BME280;69222;52.242;20.980;2024-01-15T07:45:06;97753.34;;;0.17;96.63
17607;BME280;69222;52.242;20.980;2024-01-15T07:47:34;97771.06;;;0.20;96.85
17607;BME280;69222;52.242;20.980;2024-01-15T07:50:02;97762.59;;;0.24;96.56
17607;BME280;69222;52.242;20.980;2024-01-15T07:52:33;97761.75;;;0.23;95.40
17607;BME280;69222;52.242;20.980;2024-01-15T07:55:01;97754.97;;;0.26;95.12
17607;BME280;69222;52.242;20.980;2024-01-15T07:57:32;97767.63;;;0.29;93.14
17607;BME280;69222;52.242;20.980;2024-01-15T07:59:59;97761.69;;;0.31;93.53
17607;BME280;69222;52.242;20.980;2024-01-15T08:02:28;97755.78;;;0.32;93.79
17607;BME280;69222;52.242;20.980;2024-01-15T08:05:00;97758.31;;;0.29;95.10
17607;BME280;69222;52.242;20.980;2024-01-15T08:07:28;97755.84;;;0.23;96.64
17607;BME280;69222;52.242;20.980;2024-01-15T08:09:57;97760.94;;;0.20;98.25
17607;BME280;69222;52.242;20.980;2024-01-15T08:12:25;97757.59;;;0.15;98.96
17607;BME280;69222;52.242;20.980;2024-01-15T08:14:53;97761.84;;;0.10;99.32
17607;BME280;69222;52.242;20.980;2024-01-15T08:17:21;97757.66;;;0.06;99.98
17607;BME280;69222;52.242;20.980;2024-01-15T08:19:49;97750.03;;;0.07;100.00
17607;BME280;69222;52.242;20.980;2024-01-15T08:22:17;97753.41;;;0.09;100.00
17607;BME280;69222;52.242;20.980;2024-01-15T08:24:45;97764.34;;;0.13;97.48
17607;BME280;69222;52.242;20.980;2024-01-15T08:27:14;97765.16;;;0.18;96.07
17607;BME280;69222;52.242;20.980;2024-01-15T08:29:42;97767.66;;;0.24;94.01
17607;BME280;69222;52.242;20.980;2024-01-15T08:32:11;97764.25;;;0.28;93.36
17607;BME280;69222;52.242;20.980;2024-01-15T08:34:42;97755.72;;;0.38;92.13
17607;BME280;69222;52.242;20.980;2024-01-15T08:37:10;97756.47;;;0.53;92.05
17607;BME280;69222;52.242;20.980;2024-01-15T08:39:38;97758.88;;;0.65;90.24
17607;BME280;69222;52.242;20.980;2024-01-15T08:42:06;97762.19;;;0.75;88.38
17607;BME280;69222;52.242;20.980;2024-01-15T08:44:36;97767.19;;;0.82;88.50
17607;BME280;69222;52.242;20.980;2024-01-15T08:47:05;97766.31;;;0.85;88.13
17607;BME280;69222;52.242;20.980;2024-01-15T08:49:33;97769.69;;;0.85;87.58
17607;BME280;69222;52.242;20.980;2024-01-15T08:52:03;97767.19;;;0.82;88.25
17607;BME280;69222;52.242;20.980;2024-01-15T08:54:31;97782.44;;;0.78;89.02
17607;BME280;69222;52.242;20.980;2024-01-15T08:56:58;97775.72;;;0.72;89.72
17607;BME280;69222;52.242;20.980;2024-01-15T08:59:27;97778.28;;;0.69;89.96
17607;BME280;69222;52.242;20.980;2024-01-15T09:01:56;97785.91;;;0.64;91.10
17607;BME280;69222;52.242;20.980;2024-01-15T09:04:24;97801.09;;;0.66;91.78
17607;BME280;69222;52.242;20.980;2024-01-15T09:06:52;97790.16;;;0.62;91.82
17607;BME280;69222;52.242;20.980;2024-01-15T09:09:20;97791.03;;;0.60;92.04
17607;BME280;69222;52.242;20.980;2024-01-15T09:11:48;97786.81;;;0.60;92.07
17607;BME280;69222;52.242;20.980;2024-01-15T09:14:17;97777.47;;;0.64;91.53
17607;BME280;69222;52.242;20.980;2024-01-15T09:17:03;97779.97;;;0.68;89.28
17607;BME280;69222;52.242;20.980;2024-01-15T09:19:32;97769.78;;;0.73;88.76
17607;BME280;69222;52.242;20.980;2024-01-15T09:22:00;97772.19;;;0.87;88.83
17607;BME280;69222;52.242;20.980;2024-01-15T09:24:28;97772.06;;;1.01;86.69
17607;BME280;69222;52.242;20.980;2024-01-15T09:26:56;97759.38;;;1.04;85.62
17607;BME280;69222;52.242;20.980;2024-01-15T09:29:24;97794.00;;;1.05;84.45
17607;BME280;69222;52.242;20.980;2024-01-15T09:31:52;97761.97;;;0.98;83.80
17607;BME280;69222;52.242;20.980;2024-01-15T09:34:21;97756.09;;;0.92;84.32
17607;BME280;69222;52.242;20.980;2024-01-15T09:36:49;97749.34;;;0.93;84.95
17607;BME280;69222;52.242;20.980;2024-01-15T09:39:17;97756.09;;;0.92;84.14
17607;BME280;69222;52.242;20.980;2024-01-15T09:41:46;97762.81;;;0.95;84.40
17607;BME280;69222;52.242;20.980;2024-01-15T09:44:14;97760.19;;;1.03;83.77
17607;BME280;69222;52.242;20.980;2024-01-15T09:46:43;97753.31;;;1.14;82.48
17607;BME280;69222;52.242;20.980;2024-01-15T09:49:11;97755.00;;;1.18;82.15
17607;BME280;69222;52.242;20.980;2024-01-15T09:51:42;97757.53;;;1.16;80.63
17607;BME280;69222;52.242;20.980;2024-01-15T09:54:12;97760.13;;;1.12;80.78
17607;BME280;69222;52.242;20.980;2024-01-15T09:56:45;97746.56;;;1.13;80.54
17607;BME280;69222;52.242;20.980;2024-01-15T09:59:14;97759.22;;;1.16;79.28
17607;BME280;69222;52.242;20.980;2024-01-15T10:01:43;97749.13;;;1.10;80.37
17607;BME280;69222;52.242;20.980;2024-01-15T10:04:11;97747.44;;;1.12;80.60
17607;BME280;69222;52.242;20.980;2024-01-15T10:06:44;97747.41;;;1.15;79.51
17607;BME280;69222;52.242;20.980;2024-01-15T10:09:14;97748.16;;;1.23;78.78
17607;BME280;69222;52.242;20.980;2024-01-15T10:11:42;97749.78;;;1.30;79.43
17607;BME280;69222;52.242;20.980;2024-01-15T10:14:11;97735.41;;;1.29;78.06
17607;BME280;69222;52.242;20.980;2024-01-15T10:16:40;97747.28;;;1.24;77.37
17607;BME280;69222;52.242;20.980;2024-01-15T10:19:08;97740.63;;;1.17;77.73
17607;BME280;69222;52.242;20.980;2024-01-15T10:21:36;97744.91;;;1.12;77.46
17607;BME280;69222;52.242;20.980;2024-01-15T10:24:06;97748.25;;;1.14;77.90
17607;BME280;69222;52.242;20.980;2024-01-15T10:26:34;97741.47;;;1.16;77.29
17607;BME280;69222;52.242;20.980;2024-01-15T10:29:02;97744.00;;;1.16;77.43
17607;BME280;69222;52.242;20.980;2024-01-15T10:31:30;97754.22;;;1.11;78.47
17607;BME280;69222;52.242;20.980;2024-01-15T10:34:10;97750.03;;;1.07;80.01
17607;BME280;69222;52.242;20.980;2024-01-15T10:36:39;97742.44;;;1.07;79.39
17607;BME280;69222;52.242;20.980;2024-01-15T10:39:09;97740.72;;;1.08;79.53
17607;BME280;69222;52.242;20.980;2024-01-15T10:41:38;97740.72;;;1.06;80.46
17607;BME280;69222;52.242;20.980;2024-01-15T10:44:06;97734.03;;;1.01;79.30
17607;BME280;69222;52.242;20.980;2024-01-15T10:46:34;97718.81;;;1.01;80.24
17607;BME280;69222;52.242;20.980;2024-01-15T10:49:04;97730.56;;;1.09;80.40
17607;BME280;69222;52.242;20.980;2024-01-15T10:51:32;97745.66;;;1.20;79.90
17607;BME280;69222;52.242;20.980;2024-01-15T10:54:00;97733.81;;;1.22;80.19
17607;BME280;69222;52.242;20.980;2024-01-15T10:56:31;97743.09;;;1.23;80.07
17607;BME280;69222;52.242;20.980;2024-01-15T10:58:59;97742.28;;;1.19;80.39
17607;BME280;69222;52.242;20.980;2024-01-15T11:01:28;97735.44;;;1.25;80.50
17607;BME280;69222;52.242;20.980;2024-01-15T11:03:57;97747.28;;;1.24;79.36
17607;BME280;69222;52.242;20.980;2024-01-15T11:06:27;97732.19;;;1.15;80.15
17607;BME280;69222;52.242;20.980;2024-01-15T11:08:56;97738.03;;;1.20;79.88
17607;BME280;69222;52.242;20.980;2024-01-15T11:11:25;97736.25;;;1.28;79.70
17607;BME280;69222;52.242;20.980;2024-01-15T11:13:54;97731.13;;;1.34;79.43
17607;BME280;69222;52.242;20.980;2024-01-15T11:16:23;97749.78;;;1.30;79.33
17607;BME280;69222;52.242;20.980;2024-01-15T11:19:05;97741.34;;;1.25;79.24
17607;BME280;69222;52.242;20.980;2024-01-15T11:21:42;97723.69;;;1.17;79.10
17607;BME280;69222;52.242;20.980;2024-01-15T11:24:34;97729.69;;;1.12;79.82
17607;BME280;69222;52.242;20.980;2024-01-15T11:27:03;97722.88;;;1.15;79.32
17607;BME280;69222;52.242;20.980;2024-01-15T11:29:34;97727.97;;;1.15;79.87
17607;BME280;69222;52.242;20.980;2024-01-15T11:32:03;97745.69;;;1.18;79.31
17607;BME280;69222;52.242;20.980;2024-01-15T11:34:52;97724.56;;;1.18;78.97
17607;BME280;69222;52.242;20.980;2024-01-15T11:37:21;97733.84;;;1.17;79.26
17607;BME280;69222;52.242;20.980;2024-01-15T11:39:52;97731.31;;;1.19;79.06
17607;BME280;69222;52.242;20.980;2024-01-15T11:42:22;97727.09;;;1.18;78.78
17607;BME280;69222;52.242;20.980;2024-01-15T11:44:52;97716.97;;;1.15;78.10
17607;BME280;69222;52.242;20.980;2024-01-15T11:47:40;97725.44;;;1.12;79.21
17607;BME280;69222;52.242;20.980;2024-01-15T11:50:14;97716.19;;;1.08;80.03
17607;BME280;69222;52.242;20.980;2024-01-15T11:52:46;97721.28;;;1.07;79.51
17607;BME280;69222;52.242;20.980;2024-01-15T11:55:19;97726.44;;;1.01;80.39
17607;BME280;69222;52.242;20.980;2024-01-15T11:57:51;97710.38;;;0.99;81.55
17607;BME280;69222;52.242;20.980;2024-01-15T12:00:21;97720.53;;;1.00;81.02
17607;BME280;69222;52.242;20.980;2024-01-15T12:02:50;97712.09;;;0.98;81.93
17607;BME280;69222;52.242;20.980;2024-01-15T12:05:19;97727.31;;;0.96;81.95
17607;BME280;69222;52.242;20.980;2024-01-15T12:07:48;97702.00;;;0.93;82.34
17607;BME280;69222;52.242;20.980;2024-01-15T12:10:18;97727.28;;;0.98;81.85
17607;BME280;69222;52.242;20.980;2024-01-15T12:12:57;97717.19;;;0.95;83.12
17607;BME280;69222;52.242;20.980;2024-01-15T12:15:28;97724.84;;;0.90;82.32
17607;BME280;69222;52.242;20.980;2024-01-15T12:17:57;97707.16;;;0.86;82.94
17607;BME280;69222;52.242;20.980;2024-01-15T12:20:26;97709.72;;;0.83;83.10
17607;BME280;69222;52.242;20.980;2024-01-15T12:22:55;97718.25;;;0.74;86.50
17607;BME280;69222;52.242;20.980;2024-01-15T12:25:29;97708.16;;;0.71;85.35
17607;BME280;69222;52.242;20.980;2024-01-15T12:27:58;97707.25;;;0.75;85.27
17607;BME280;69222;52.242;20.980;2024-01-15T12:30:29;97711.41;;;0.81;84.69
17607;BME280;69222;52.242;20.980;2024-01-15T12:33:01;97708.03;;;0.80;84.67
17607;BME280;69222;52.242;20.980;2024-01-15T12:35:30;97706.41;;;0.76;86.61
17607;BME280;69222;52.242;20.980;2024-01-15T12:37:59;97700.63;;;0.63;90.73
17607;BME280;69222;52.242;20.980;2024-01-15T12:40:29;97699.91;;;0.47;94.05
17607;BME280;69222;52.242;20.980;2024-01-15T12:42:57;97706.00;;;0.30;96.96
17607;BME280;69222;52.242;20.980;2024-01-15T12:45:25;97707.75;;;0.23;98.36
17607;BME280;69222;52.242;20.980;2024-01-15T12:47:54;97711.97;;;0.18;98.71
17607;BME280;69222;52.242;20.980;2024-01-15T12:50:24;97704.44;;;0.13;99.27
17607;BME280;69222;52.242;20.980;2024-01-15T12:52:53;97711.16;;;0.17;98.92
17607;BME280;69222;52.242;20.980;2024-01-15T12:55:21;97705.19;;;0.26;98.09
17607;BME280;69222;52.242;20.980;2024-01-15T12:57:49;97727.03;;;0.36;96.17
17607;BME280;69222;52.242;20.980;2024-01-15T13:00:19;97703.31;;;0.43;93.24
17607;BME280;69222;52.242;20.980;2024-01-15T13:02:47;97710.88;;;0.50;92.16
17607;BME280;69222;52.242;20.980;2024-01-15T13:05:19;97719.28;;;0.53;90.03
17607;BME280;69222;52.242;20.980;2024-01-15T13:07:48;97693.09;;;0.54;88.73
17607;BME280;69222;52.242;20.980;2024-01-15T13:10:16;97731.94;;;0.55;89.38